Weather History for Roxboro, NC

Change the Weather History Date:

Thursday, March 13, 2014

  Actual Average Record
Temperature  
Mean Temperature 34 °F -  
Max Temperature 41 °F 60 °F 88 °F (1990)
Min Temperature 26 °F 37 °F 18 °F (1960)
Degree Days  
Heating Degree Days 32    
Moisture  
Dew Point 12 °F    
Average Humidity 42    
Maximum Humidity 80    
Minimum Humidity 21    
Precipitation  
Precipitation 0.00 in - - ()
Sea Level Pressure  
Sea Level Pressure 29.98 in    
Wind  
Wind Speed 11 mph (NW)    
Max Wind Speed 18 mph    
Max Gust Speed 34 mph    
Visibility 10 miles    
Events      
Averages and records for this station are not official NWS values.
T = Trace of Precipitation, MM = Missing Value Source: NWS Daily Summary

Daily Weather History Graph

Daily Weather History Graph

Search for Another Location

Airport:

Trip Planner

Search our weather history database for the weather conditions in past years. The results will help you decide how hot, cold, wet, or windy it might be!

Date:

Astronomy

Mar. 13, 2014 Rise Set
Actual Time 7:29 AM EDT 7:21 PM EDT
Civil Twilight 7:04 AM EDT 7:47 PM EDT
Nautical Twilight 6:34 AM EDT 8:17 PM EDT
Astronomical Twilight 6:04 AM EDT 8:47 PM EDT
Moon 4:49 PM EDT (3/13) 5:31 AM EDT (3/13)
Length of Visible Light 12h 43m
Length of Day
11h 51m
Waxing Gibbous, 91% of the Moon is Illuminated
Mar 13
Waxing Gibbous
Mar 16
Full
Mar 23
Last Quarter
Mar 30
New
Apr 7
First Quarter

Hourly Weather History & Observations

Time (EDT) Temp. Windchill Dew Point Humidity Pressure Visibility Wind Dir Wind Speed Gust Speed Precip Events Conditions
12:15 AM 41.0 °F 33.1 °F 24.8 °F 53% 29.64 in 10.0 mi WNW 15.0 mph 21.9 mph N/A   Clear
12:35 AM 39.2 °F 32.5 °F 24.8 °F 56% 29.65 in 10.0 mi WNW 10.4 mph 19.6 mph N/A   Clear
12:55 AM 39.2 °F 30.2 °F 23.0 °F 52% 29.67 in 10.0 mi WNW 17.3 mph 28.8 mph N/A   Scattered Clouds
1:15 AM 37.4 °F 29.3 °F 21.2 °F 52% 29.68 in 10.0 mi WNW 12.7 mph 29.9 mph N/A   Scattered Clouds
1:35 AM 37.4 °F 29.8 °F 21.2 °F 52% 29.70 in 10.0 mi NW 11.5 mph 24.2 mph N/A   Clear
1:55 AM 37.4 °F 28.2 °F 21.2 °F 52% 29.71 in 10.0 mi WNW 16.1 mph 24.2 mph N/A   Clear
2:15 AM 37.4 °F 29.8 °F 21.2 °F 52% 29.72 in 10.0 mi NW 11.5 mph 21.9 mph N/A   Clear
2:35 AM 37.4 °F 30.8 °F 21.2 °F 52% 29.72 in 10.0 mi NNW 9.2 mph - N/A   Clear
2:55 AM 37.4 °F 29.3 °F 19.4 °F 48% 29.72 in 10.0 mi WNW 12.7 mph 28.8 mph N/A   Clear
3:15 AM 35.6 °F 27.1 °F 19.4 °F 52% 29.73 in 10.0 mi WNW 12.7 mph 24.2 mph N/A   Clear
3:35 AM 35.6 °F 26.6 °F 19.4 °F 52% 29.74 in 10.0 mi WNW 13.8 mph 23.0 mph N/A   Clear
3:55 AM 35.6 °F 25.9 °F 17.6 °F 48% 29.74 in 10.0 mi WNW 16.1 mph 27.6 mph N/A   Clear
4:15 AM 33.8 °F 24.3 °F 15.8 °F 48% 29.75 in 10.0 mi NW 13.8 mph 25.3 mph N/A   Clear
4:35 AM 33.8 °F 23.9 °F 14.0 °F 44% 29.77 in 10.0 mi NW 15.0 mph 28.8 mph N/A   Clear
4:55 AM 33.8 °F 24.3 °F 15.8 °F 48% 29.79 in 10.0 mi NW 13.8 mph 21.9 mph N/A   Scattered Clouds
5:15 AM 32.0 °F 23.6 °F 14.0 °F 48% 29.80 in 10.0 mi NW 10.4 mph 23.0 mph N/A   Scattered Clouds
5:35 AM 32.0 °F 25.6 °F 14.0 °F 48% 29.81 in 10.0 mi NW 6.9 mph 19.6 mph N/A   Clear
5:55 AM 32.0 °F 24.8 °F 14.0 °F 48% 29.82 in 10.0 mi NW 8.1 mph - N/A   Scattered Clouds
6:15 AM 32.0 °F - 14.0 °F 48% 29.84 in 10.0 mi Calm Calm - N/A   Mostly Cloudy
6:35 AM 32.0 °F 28.7 °F 15.8 °F 51% 29.84 in 10.0 mi North 3.5 mph - N/A   Overcast
6:55 AM 32.0 °F - 15.8 °F 51% 29.85 in 10.0 mi Calm Calm - N/A   Mostly Cloudy
7:15 AM 32.0 °F 28.7 °F 15.8 °F 51% 29.87 in 10.0 mi NW 3.5 mph - N/A   Mostly Cloudy
7:35 AM 32.0 °F 26.4 °F 15.8 °F 51% 29.88 in 10.0 mi NW 5.8 mph - N/A   Scattered Clouds
7:55 AM 32.0 °F 28.7 °F 17.6 °F 55% 29.89 in 10.0 mi NW 3.5 mph - N/A   Scattered Clouds
8:15 AM 32.0 °F 28.7 °F 17.6 °F 55% 29.91 in 10.0 mi NW 3.5 mph - N/A   Scattered Clouds
8:35 AM 32.0 °F 27.5 °F 17.6 °F 55% 29.92 in 10.0 mi NNW 4.6 mph - N/A   Scattered Clouds
8:55 AM 32.0 °F 24.2 °F 15.8 °F 51% 29.94 in 10.0 mi NNW 9.2 mph 19.6 mph N/A   Scattered Clouds
9:15 AM 33.8 °F 23.9 °F 12.2 °F 41% 29.95 in 10.0 mi NW 15.0 mph 25.3 mph N/A   Clear
9:35 AM 33.8 °F 24.3 °F 10.4 °F 38% 29.96 in 10.0 mi NW 13.8 mph 25.3 mph N/A   Clear
9:55 AM 33.8 °F 24.8 °F 10.4 °F 38% 29.98 in 10.0 mi NNW 12.7 mph 25.3 mph N/A   Clear
10:15 AM 33.8 °F 23.2 °F 10.4 °F 38% 29.99 in 10.0 mi NNW 17.3 mph 26.5 mph N/A   Clear
10:35 AM 33.8 °F 23.2 °F 8.6 °F 35% 29.99 in 10.0 mi NNW 17.3 mph 25.3 mph N/A   Clear
10:55 AM 33.8 °F 24.8 °F 8.6 °F 35% 30.00 in 10.0 mi NW 12.7 mph 26.5 mph N/A   Clear
11:15 AM 33.8 °F 23.9 °F 6.8 °F 32% 30.01 in 10.0 mi NNW 15.0 mph 25.3 mph N/A   Clear
11:35 AM 35.6 °F 25.9 °F 5.0 °F 28% 30.02 in 10.0 mi NW 16.1 mph 31.1 mph N/A   Clear
11:55 AM 35.6 °F 26.2 °F 5.0 °F 28% 30.02 in 10.0 mi NW 15.0 mph 26.5 mph N/A   Clear
12:15 PM 35.6 °F 28.0 °F 6.8 °F 30% 30.03 in 10.0 mi NNW 10.4 mph 25.3 mph N/A   Clear
12:35 PM 35.6 °F 27.1 °F 6.8 °F 30% 30.04 in 10.0 mi NW 12.7 mph 23.0 mph N/A   Clear
12:55 PM 37.4 °F 28.9 °F 6.8 °F 28% 30.04 in 10.0 mi NW 13.8 mph 27.6 mph N/A   Clear
1:15 PM 37.4 °F 29.8 °F 8.6 °F 30% 30.05 in 10.0 mi WNW 11.5 mph 19.6 mph N/A   Clear
1:35 PM 37.4 °F 27.8 °F 6.8 °F 28% 30.05 in 10.0 mi NNW 17.3 mph 34.5 mph N/A   Clear
1:55 PM 37.4 °F 28.9 °F 8.6 °F 30% 30.05 in 10.0 mi West 13.8 mph 26.5 mph N/A   Clear
2:15 PM 39.2 °F 29.8 °F 8.6 °F 28% 30.05 in 10.0 mi WNW 18.4 mph 24.2 mph N/A   Clear
2:35 PM 39.2 °F 30.5 °F 6.8 °F 26% 30.05 in 10.0 mi NW 16.1 mph 24.2 mph N/A   Clear
2:55 PM 39.2 °F 33.0 °F 6.8 °F 26% 30.05 in 10.0 mi NW 9.2 mph 23.0 mph N/A   Clear
3:15 PM 39.2 °F 30.8 °F 5.0 °F 24% 30.05 in 10.0 mi WNW 15.0 mph 23.0 mph N/A   Clear
3:35 PM 39.2 °F 31.6 °F 5.0 °F 24% 30.06 in 10.0 mi NW 12.7 mph 24.2 mph N/A   Clear
3:55 PM 41.0 °F 33.9 °F 5.0 °F 23% 30.07 in 10.0 mi WNW 12.7 mph 20.7 mph N/A   Clear
4:15 PM 41.0 °F 35.2 °F 5.0 °F 23% 30.07 in 10.0 mi NW 9.2 mph 21.9 mph N/A   Clear
4:35 PM 41.0 °F 33.1 °F 3.2 °F 21% 30.07 in 10.0 mi WNW 15.0 mph 19.6 mph N/A   Clear
4:55 PM 41.0 °F 35.2 °F 3.2 °F 21% 30.08 in 10.0 mi WNW 9.2 mph 21.9 mph N/A   Clear
5:15 PM 41.0 °F 33.9 °F 5.0 °F 23% 30.08 in 10.0 mi WNW 12.7 mph 19.6 mph N/A   Clear
5:35 PM 41.0 °F 35.2 °F 3.2 °F 21% 30.08 in 10.0 mi NW 9.2 mph 16.1 mph N/A   Clear
5:55 PM 41.0 °F 38.0 °F 3.2 °F 21% 30.09 in 10.0 mi NW 4.6 mph 17.3 mph N/A   Clear
6:15 PM 41.0 °F 38.0 °F 3.2 °F 21% 30.10 in 10.0 mi WNW 4.6 mph - N/A   Clear
6:35 PM 39.2 °F 35.9 °F 3.2 °F 22% 30.12 in 10.0 mi NW 4.6 mph 16.1 mph N/A   Clear
6:55 PM 39.2 °F 33.6 °F 3.2 °F 22% 30.13 in 10.0 mi WNW 8.1 mph 16.1 mph N/A   Clear
7:15 PM 37.4 °F - 3.2 °F 24% 30.15 in 10.0 mi Calm Calm - N/A   Clear
7:35 PM 35.6 °F - 5.0 °F 28% 30.15 in 10.0 mi Calm Calm - N/A   Clear
7:55 PM 35.6 °F - 5.0 °F 28% 30.15 in 10.0 mi Calm Calm - N/A   Clear
8:15 PM 35.6 °F - 5.0 °F 28% 30.16 in 10.0 mi Calm Calm - N/A   Clear
8:35 PM 32.0 °F - 14.0 °F 48% 30.17 in 10.0 mi Calm Calm - N/A   Clear
8:55 PM 32.0 °F - 15.8 °F 51% 30.17 in 10.0 mi Calm Calm - N/A   Clear
9:15 PM 30.2 °F - 14.0 °F 51% 30.19 in 10.0 mi Calm Calm - N/A   Clear
9:35 PM 30.2 °F - 14.0 °F 51% 30.20 in 10.0 mi Calm Calm - N/A   Clear
9:55 PM 28.4 °F - 15.8 °F 59% 30.20 in 10.0 mi Calm Calm - N/A   Clear
10:15 PM 28.4 °F - 17.6 °F 64% 30.21 in 10.0 mi Calm Calm - N/A   Clear
10:35 PM 28.4 °F - 17.6 °F 64% 30.22 in 10.0 mi Calm Calm - N/A   Clear
10:55 PM 28.4 °F - 17.6 °F 64% 30.23 in 10.0 mi North - - N/A   Clear
11:15 PM 26.6 °F - 19.4 °F 74% 30.23 in 10.0 mi Calm Calm - N/A   Clear
11:35 PM 28.4 °F - 21.2 °F 74% 30.23 in 10.0 mi Calm Calm - N/A   Clear
11:55 PM 26.6 °F - 21.2 °F 80% 30.24 in 10.0 mi North - - N/A   Clear